createdAt,value
2022-12-31T00:02:33.555Z,6.95
2022-12-31T00:05:23.498Z,4.68
2022-12-31T00:07:51.494Z,6.53
2022-12-31T00:13:03.812Z,4.50
2022-12-31T00:15:35.784Z,9.65
2022-12-31T00:20:55.696Z,7.40
2022-12-31T00:23:24.361Z,6.88
2022-12-31T00:25:55.232Z,7.50
2022-12-31T00:28:34.532Z,4.10
2022-12-31T00:31:22.443Z,9.80
2022-12-31T00:33:58.985Z,8.13
2022-12-31T00:37:24.140Z,9.88
2022-12-31T00:39:51.347Z,6.18
2022-12-31T00:42:18.666Z,10.20
2022-12-31T00:44:46.056Z,12.68
2022-12-31T00:47:13.261Z,7.60
2022-12-31T00:49:40.451Z,10.93
2022-12-31T00:52:20.553Z,8.88
2022-12-31T00:54:51.098Z,12.18
2022-12-31T00:57:19.821Z,7.35
2022-12-31T00:59:56.477Z,9.95
2022-12-31T01:02:34.319Z,7.45
2022-12-31T01:05:05.736Z,10.90
2022-12-31T01:07:41.177Z,8.73
2022-12-31T01:10:42.535Z,9.13
2022-12-31T01:13:19.581Z,7.43
2022-12-31T01:15:47.778Z,9.48
2022-12-31T01:18:15.279Z,6.85
2022-12-31T01:20:43.825Z,10.00
2022-12-31T01:23:56.154Z,7.97
2022-12-31T01:26:27.243Z,10.32
2022-12-31T01:29:00.118Z,9.95
2022-12-31T01:31:31.190Z,9.57
2022-12-31T01:33:59.128Z,8.73
2022-12-31T01:36:32.970Z,9.70
2022-12-31T01:39:02.942Z,10.65
2022-12-31T01:41:37.148Z,7.57
2022-12-31T01:44:13.698Z,10.98
2022-12-31T01:46:47.336Z,11.02
2022-12-31T01:49:41.347Z,6.47
2022-12-31T01:52:23.379Z,13.35
2022-12-31T01:55:03.220Z,11.65
2022-12-31T01:57:32.022Z,4.95
2022-12-31T02:00:02.484Z,6.78
2022-12-31T02:02:32.689Z,9.93
2022-12-31T02:05:02.881Z,10.30
2022-12-31T02:07:30.158Z,6.10
2022-12-31T02:09:57.678Z,5.30
2022-12-31T02:12:24.978Z,6.43
2022-12-31T02:14:53.860Z,9.13
2022-12-31T02:17:47.480Z,9.18
2022-12-31T02:21:05.377Z,5.45
2022-12-31T02:23:38.828Z,4.78
2022-12-31T02:26:38.561Z,4.40
2022-12-31T02:29:24.247Z,7.47
2022-12-31T02:32:16.854Z,10.25
2022-12-31T02:34:52.488Z,5.65
2022-12-31T02:37:23.038Z,10.13
2022-12-31T02:39:51.198Z,9.07
2022-12-31T02:42:18.471Z,6.63
2022-12-31T02:44:45.597Z,9.07
2022-12-31T02:47:47.193Z,4.03
2022-12-31T02:50:25.515Z,4.25
2022-12-31T02:53:23.184Z,6.38
2022-12-31T02:56:02.205Z,3.60
2022-12-31T02:58:57.023Z,5.72
2022-12-31T03:01:48.383Z,3.80
2022-12-31T03:04:32.113Z,6.18
2022-12-31T03:07:06.060Z,3.03
2022-12-31T03:09:34.098Z,6.80
2022-12-31T03:12:20.647Z,3.63
2022-12-31T03:14:47.886Z,1.67
2022-12-31T03:17:15.483Z,4.45
2022-12-31T03:20:01.721Z,5.88
2022-12-31T03:22:29.024Z,6.07
2022-12-31T03:25:20.123Z,2.90
2022-12-31T03:27:48.443Z,2.63
2022-12-31T03:30:17.712Z,2.70
2022-12-31T03:32:46.249Z,1.58
2022-12-31T03:35:15.724Z,2.03
2022-12-31T03:37:43.487Z,1.48
2022-12-31T03:40:13.761Z,1.77
2022-12-31T03:42:41.416Z,1.42
2022-12-31T03:45:09.896Z,0.15
2022-12-31T03:47:37.123Z,0.68
2022-12-31T03:50:06.343Z,0.63
2022-12-31T03:52:33.522Z,0.28
2022-12-31T03:55:02.218Z,0.30
2022-12-31T03:57:29.863Z,0.30
2022-12-31T03:59:57.183Z,0.20
2022-12-31T04:02:28.895Z,0.10
2022-12-31T04:04:56.425Z,0.30
2022-12-31T04:07:23.970Z,0.10
2022-12-31T04:09:51.072Z,0.20
2022-12-31T04:12:18.269Z,0.10
2022-12-31T04:14:45.458Z,0.35
2022-12-31T04:17:12.640Z,0.43
2022-12-31T04:19:39.826Z,2.75
2022-12-31T04:22:06.991Z,0.10
2022-12-31T04:24:34.136Z,1.30
2022-12-31T04:27:07.336Z,0.22
2022-12-31T04:29:35.949Z,0.10
2022-12-31T04:32:04.792Z,0.40
2022-12-31T04:34:32.602Z,0.38
2022-12-31T04:37:00.379Z,2.78
2022-12-31T04:39:27.603Z,0.98
2022-12-31T04:41:56.155Z,2.45
2022-12-31T04:44:23.373Z,1.65
2022-12-31T04:46:50.568Z,2.22
2022-12-31T04:49:17.801Z,0.80
2022-12-31T04:51:44.989Z,1.67
2022-12-31T04:54:12.159Z,3.30
2022-12-31T04:56:39.377Z,4.53
2022-12-31T04:59:07.448Z,3.17
2022-12-31T05:01:36.743Z,5.80
2022-12-31T05:04:04.081Z,6.90
2022-12-31T05:06:31.568Z,7.13
2022-12-31T05:08:58.730Z,3.40
2022-12-31T05:11:25.907Z,10.82
2022-12-31T05:13:53.119Z,8.13
2022-12-31T05:16:20.463Z,6.28
2022-12-31T05:18:47.839Z,6.95
2022-12-31T05:21:20.803Z,6.82
2022-12-31T05:23:48.958Z,6.80
2022-12-31T05:26:16.747Z,10.65
2022-12-31T05:28:44.010Z,11.02
2022-12-31T05:31:11.238Z,10.75
2022-12-31T05:33:38.627Z,6.25
2022-12-31T05:36:06.322Z,5.60
2022-12-31T05:38:33.659Z,6.03
2022-12-31T05:41:02.949Z,7.05
2022-12-31T05:43:30.662Z,8.80
2022-12-31T05:46:04.450Z,11.30
2022-12-31T05:48:32.404Z,9.07
2022-12-31T05:50:59.577Z,12.10
2022-12-31T05:53:26.738Z,6.68
2022-12-31T05:55:53.966Z,8.35
2022-12-31T05:58:21.091Z,9.00
2022-12-31T06:00:48.295Z,6.15
2022-12-31T06:03:15.560Z,9.27
2022-12-31T06:05:43.439Z,9.32
2022-12-31T06:08:12.234Z,8.98
2022-12-31T06:10:40.231Z,8.35
2022-12-31T06:13:08.174Z,11.02
2022-12-31T06:15:40.239Z,7.72
2022-12-31T06:18:07.710Z,13.45
2022-12-31T06:20:37.963Z,10.13
2022-12-31T06:23:05.748Z,12.20
2022-12-31T06:25:34.915Z,13.82
2022-12-31T06:28:02.151Z,12.82
2022-12-31T06:30:29.632Z,16.40
2022-12-31T06:32:57.060Z,15.98
2022-12-31T06:35:24.369Z,13.98
2022-12-31T06:37:52.687Z,22.42
2022-12-31T06:40:20.228Z,12.50
2022-12-31T06:42:47.643Z,15.70
2022-12-31T06:45:14.858Z,10.77
2022-12-31T06:47:42.009Z,12.15
2022-12-31T06:50:09.494Z,14.50
2022-12-31T06:52:37.233Z,17.70
2022-12-31T06:55:05.461Z,17.52
2022-12-31T06:57:32.898Z,10.35
2022-12-31T07:00:00.465Z,9.18
2022-12-31T07:02:52.806Z,9.77
2022-12-31T07:05:43.260Z,13.07
2022-12-31T07:08:19.223Z,9.93
2022-12-31T07:11:15.717Z,10.95
2022-12-31T07:13:45.977Z,12.20
2022-12-31T07:16:22.646Z,6.63
2022-12-31T07:19:27.382Z,8.48
2022-12-31T07:21:58.392Z,5.70
2022-12-31T07:24:26.225Z,10.48
2022-12-31T07:27:05.355Z,8.27
2022-12-31T07:30:01.935Z,8.60
2022-12-31T07:32:53.364Z,4.88
2022-12-31T07:35:58.182Z,6.03
2022-12-31T07:39:01.684Z,10.25
2022-12-31T07:42:00.577Z,10.95
2022-12-31T07:44:49.318Z,7.60
2022-12-31T07:47:22.475Z,11.13
2022-12-31T07:49:50.646Z,9.68
2022-12-31T07:52:18.204Z,12.00
2022-12-31T07:54:45.713Z,8.38
2022-12-31T07:57:14.980Z,12.15
2022-12-31T08:00:04.100Z,12.63
2022-12-31T08:02:46.368Z,13.90
2022-12-31T08:05:13.572Z,13.98
2022-12-31T08:08:20.761Z,15.18
2022-12-31T08:10:59.884Z,12.80
2022-12-31T08:13:27.477Z,17.30
2022-12-31T08:15:55.065Z,17.70
2022-12-31T08:18:22.474Z,18.90
2022-12-31T08:21:14.387Z,17.00
2022-12-31T08:23:53.996Z,12.30
2022-12-31T08:26:52.975Z,11.82
2022-12-31T08:29:35.722Z,14.00
2022-12-31T08:32:17.938Z,12.13
2022-12-31T08:35:08.201Z,21.38
2022-12-31T08:37:37.089Z,13.68
2022-12-31T08:40:32.343Z,17.20
2022-12-31T08:43:14.561Z,17.80
2022-12-31T08:46:02.594Z,13.85
2022-12-31T08:48:48.615Z,12.02
2022-12-31T08:51:20.724Z,11.75
2022-12-31T08:53:48.456Z,12.85
2022-12-31T08:56:29.051Z,22.50
2022-12-31T08:59:34.098Z,19.38
2022-12-31T09:02:07.509Z,16.38
2022-12-31T09:04:59.739Z,13.75
2022-12-31T09:07:40.876Z,11.55
2022-12-31T09:10:46.366Z,12.02
2022-12-31T09:13:41.376Z,15.52
2022-12-31T09:16:26.514Z,18.95
2022-12-31T09:18:53.786Z,19.63
2022-12-31T09:21:21.106Z,20.13
2022-12-31T09:23:48.377Z,17.27
2022-12-31T09:26:19.711Z,16.27
2022-12-31T09:29:08.025Z,13.00
2022-12-31T09:32:03.848Z,11.05
2022-12-31T09:34:43.467Z,19.92
2022-12-31T09:37:26.475Z,13.20
2022-12-31T09:39:54.861Z,11.88
2022-12-31T09:42:34.366Z,14.85
2022-12-31T09:45:26.462Z,13.93
2022-12-31T09:48:10.587Z,8.30
2022-12-31T09:51:08.099Z,26.95
2022-12-31T09:54:01.250Z,18.13
2022-12-31T09:57:03.879Z,13.10
2022-12-31T10:03:17.875Z,14.85
2022-12-31T10:06:09.567Z,10.68
2022-12-31T10:09:38.822Z,14.23
2022-12-31T10:12:46.806Z,14.27
2022-12-31T10:15:56.830Z,10.55
2022-12-31T10:19:22.696Z,10.98
2022-12-31T10:22:41.795Z,17.35
2022-12-31T10:25:38.442Z,12.98
2022-12-31T10:28:27.092Z,5.07
2022-12-31T10:31:15.666Z,11.15
2022-12-31T10:34:16.129Z,7.75
2022-12-31T10:37:03.237Z,9.05
2022-12-31T10:39:45.859Z,6.50
2022-12-31T10:42:52.361Z,6.75
2022-12-31T10:45:23.187Z,5.20
2022-12-31T10:48:25.760Z,3.53
2022-12-31T10:51:25.962Z,5.72
2022-12-31T10:54:21.531Z,5.07
2022-12-31T10:56:51.718Z,6.50
2022-12-31T10:59:45.358Z,3.58
2022-12-31T11:02:15.877Z,4.25
2022-12-31T11:05:23.987Z,3.28
2022-12-31T11:08:23.740Z,1.55
2022-12-31T11:11:21.270Z,7.00
2022-12-31T11:14:26.279Z,2.55
2022-12-31T11:16:59.856Z,1.27
2022-12-31T11:19:38.793Z,3.47
2022-12-31T11:22:37.400Z,1.50
2022-12-31T11:25:23.773Z,2.58
2022-12-31T11:28:26.996Z,1.98
2022-12-31T11:31:09.168Z,1.90
2022-12-31T11:34:06.143Z,3.40
2022-12-31T11:36:55.702Z,1.63
2022-12-31T11:40:06.496Z,1.30
2022-12-31T11:42:55.972Z,0.50
2022-12-31T11:45:52.433Z,0.95
2022-12-31T11:48:49.290Z,1.30
2022-12-31T11:51:29.727Z,1.45
2022-12-31T11:54:28.315Z,0.38
2022-12-31T11:57:12.932Z,0.65
2022-12-31T11:59:40.965Z,0.85
2022-12-31T12:02:35.086Z,0.10
2022-12-31T12:05:10.721Z,0.28
2022-12-31T12:07:52.247Z,0.80
2022-12-31T12:10:37.180Z,3.72
2022-12-31T12:13:22.604Z,3.85
2022-12-31T12:16:03.175Z,4.15
2022-12-31T12:18:48.571Z,7.63
2022-12-31T12:21:24.100Z,9.27
2022-12-31T12:24:10.288Z,11.60
2022-12-31T12:26:43.357Z,5.97
2022-12-31T12:29:22.416Z,10.68
2022-12-31T12:31:57.805Z,12.52
2022-12-31T12:34:30.827Z,13.38
2022-12-31T12:36:58.330Z,8.57
2022-12-31T12:39:28.611Z,10.85
2022-12-31T12:42:15.483Z,8.55
2022-12-31T12:44:42.838Z,8.63
2022-12-31T12:47:16.158Z,9.45
2022-12-31T12:49:48.228Z,8.40
2022-12-31T12:52:24.963Z,15.90
2022-12-31T12:55:28.839Z,13.45
2022-12-31T12:58:25.400Z,7.95
2022-12-31T13:01:36.951Z,10.95
2022-12-31T13:04:34.348Z,14.07
2022-12-31T13:07:40.916Z,15.93
2022-12-31T13:10:27.772Z,10.75
2022-12-31T13:13:28.245Z,14.90
2022-12-31T13:16:34.942Z,16.23
2022-12-31T13:19:36.371Z,15.77
2022-12-31T13:22:21.455Z,12.20
2022-12-31T13:25:20.979Z,14.23
2022-12-31T13:28:06.394Z,19.05
2022-12-31T13:30:42.383Z,17.83
2022-12-31T13:33:16.563Z,14.25
2022-12-31T13:35:52.379Z,12.98
2022-12-31T13:38:54.148Z,11.30
2022-12-31T13:41:45.342Z,20.63
2022-12-31T13:44:44.949Z,17.27
2022-12-31T13:47:29.811Z,14.18
2022-12-31T13:50:16.935Z,12.75
2022-12-31T13:53:21.526Z,13.32
2022-12-31T13:56:02.169Z,15.68
2022-12-31T13:59:01.073Z,16.00
2022-12-31T14:01:34.546Z,12.95
2022-12-31T14:04:39.457Z,12.52
2022-12-31T14:07:14.900Z,11.30
2022-12-31T14:09:42.585Z,12.23
2022-12-31T14:12:23.746Z,11.50
2022-12-31T14:15:57.586Z,13.50
2022-12-31T14:19:04.131Z,15.45
2022-12-31T14:21:54.008Z,12.48
2022-12-31T14:25:01.002Z,10.43
2022-12-31T14:27:41.853Z,13.02
2022-12-31T14:30:18.830Z,9.90
2022-12-31T14:33:04.789Z,9.95
2022-12-31T14:35:40.837Z,15.82
2022-12-31T14:38:26.483Z,19.15
2022-12-31T14:41:11.712Z,15.50
2022-12-31T14:44:06.183Z,25.02
2022-12-31T14:46:50.373Z,20.23
2022-12-31T14:49:41.522Z,19.75
2022-12-31T14:52:32.407Z,18.63
2022-12-31T14:55:17.665Z,25.50
2022-12-31T14:58:25.959Z,23.10
2022-12-31T15:00:38.566Z,28.17
2022-12-31T15:03:15.051Z,33.35
2022-12-31T15:06:23.271Z,27.42
2022-12-31T15:09:14.182Z,27.17
2022-12-31T15:11:47.525Z,31.52
2022-12-31T15:14:53.258Z,24.00
2022-12-31T15:17:45.219Z,28.30
2022-12-31T15:20:28.029Z,25.00
2022-12-31T15:22:56.221Z,22.75
2022-12-31T15:25:30.853Z,27.90
2022-12-31T15:28:21.474Z,28.23
2022-12-31T15:30:56.229Z,28.00
2022-12-31T15:33:33.990Z,32.35
2022-12-31T15:36:22.009Z,26.75
2022-12-31T15:38:50.957Z,22.05
2022-12-31T15:41:46.050Z,23.98
2022-12-31T15:44:47.144Z,30.83
2022-12-31T15:47:26.636Z,22.13
2022-12-31T15:49:54.970Z,25.15
2022-12-31T15:52:41.824Z,29.52
2022-12-31T15:55:22.185Z,18.27
2022-12-31T15:58:03.308Z,29.35
2022-12-31T16:00:44.268Z,24.75
2022-12-31T16:03:22.660Z,29.15
2022-12-31T16:05:51.466Z,27.90
2022-12-31T16:08:23.362Z,33.10
2022-12-31T16:10:59.374Z,33.38
2022-12-31T16:13:28.476Z,32.17
2022-12-31T16:16:08.470Z,34.50
2022-12-31T16:19:00.654Z,36.03
2022-12-31T16:21:29.674Z,35.75
2022-12-31T16:24:00.285Z,31.60
2022-12-31T16:26:52.680Z,34.00
2022-12-31T16:29:23.727Z,41.83
2022-12-31T16:31:53.722Z,33.08
2022-12-31T16:34:26.974Z,28.67
2022-12-31T16:37:06.598Z,26.77
2022-12-31T16:39:35.914Z,27.10
2022-12-31T16:42:15.013Z,35.17
2022-12-31T16:44:42.609Z,33.33
2022-12-31T16:47:32.979Z,33.67
2022-12-31T16:50:08.124Z,29.30
2022-12-31T16:52:42.098Z,27.13
2022-12-31T16:55:24.403Z,25.33
2022-12-31T16:58:06.414Z,31.15
2022-12-31T17:00:34.985Z,29.02
2022-12-31T17:03:18.070Z,27.45
2022-12-31T17:06:12.654Z,28.23
2022-12-31T17:08:42.879Z,29.30
2022-12-31T17:11:31.587Z,30.55
2022-12-31T17:14:09.339Z,26.77
2022-12-31T17:16:40.612Z,36.65
2022-12-31T17:19:33.680Z,28.88
2022-12-31T17:22:03.022Z,33.95
2022-12-31T17:24:31.487Z,26.25
2022-12-31T17:27:08.684Z,27.88
2022-12-31T17:29:36.439Z,27.90
2022-12-31T17:32:30.323Z,30.65
2022-12-31T17:34:57.788Z,36.33
2022-12-31T17:37:28.311Z,34.65
2022-12-31T17:40:32.324Z,20.20
2022-12-31T17:42:49.539Z,23.70
2022-12-31T17:45:21.192Z,30.65
2022-12-31T17:47:53.933Z,32.93
2022-12-31T17:50:25.355Z,24.80
2022-12-31T17:53:12.554Z,26.53
2022-12-31T17:55:42.217Z,22.08
2022-12-31T17:58:29.837Z,29.73
2022-12-31T18:00:58.912Z,28.23
2022-12-31T18:03:26.467Z,31.73
2022-12-31T18:05:53.838Z,28.95
2022-12-31T18:08:21.116Z,24.05
2022-12-31T18:10:49.661Z,34.30
2022-12-31T18:13:23.542Z,23.08
2022-12-31T18:15:51.100Z,27.85
2022-12-31T18:18:25.167Z,23.95
2022-12-31T18:20:56.580Z,26.55
2022-12-31T18:23:41.016Z,39.25
2022-12-31T18:26:17.131Z,35.22
2022-12-31T18:28:45.069Z,28.02
2022-12-31T18:31:32.873Z,22.38
2022-12-31T18:34:00.247Z,22.35
2022-12-31T18:36:29.073Z,31.98
2022-12-31T18:38:56.950Z,38.42
2022-12-31T18:41:28.001Z,24.60
2022-12-31T18:43:56.390Z,31.45
2022-12-31T18:46:25.449Z,22.88
2022-12-31T18:48:54.035Z,29.08
2022-12-31T18:51:31.530Z,23.63
2022-12-31T18:54:00.805Z,23.05
2022-12-31T18:56:28.817Z,29.67
2022-12-31T18:58:56.009Z,25.02
2022-12-31T19:01:31.246Z,30.25
2022-12-31T19:04:01.317Z,24.65
2022-12-31T19:06:29.692Z,29.98
2022-12-31T19:08:59.190Z,31.40
2022-12-31T19:11:28.813Z,23.45
2022-12-31T19:13:56.027Z,24.75
2022-12-31T19:16:23.172Z,29.33
2022-12-31T19:18:51.013Z,35.17
2022-12-31T19:21:22.586Z,31.25
2022-12-31T19:23:51.247Z,35.42
2022-12-31T19:26:20.898Z,34.33
2022-12-31T19:28:49.848Z,30.73
2022-12-31T19:31:17.835Z,30.05
2022-12-31T19:33:45.738Z,30.20
2022-12-31T19:36:18.963Z,34.63
2022-12-31T19:38:52.824Z,32.63
2022-12-31T19:41:20.648Z,25.90
2022-12-31T19:43:48.193Z,29.95
2022-12-31T19:46:19.573Z,29.92
2022-12-31T19:48:46.868Z,23.13
2022-12-31T19:51:21.482Z,31.63
2022-12-31T19:53:49.771Z,32.45
2022-12-31T19:56:19.833Z,28.33
2022-12-31T19:58:47.573Z,26.52
2022-12-31T20:01:23.367Z,26.20
2022-12-31T20:03:51.478Z,21.67
2022-12-31T20:06:19.461Z,29.20
2022-12-31T20:08:46.721Z,25.42
2022-12-31T20:11:20.667Z,32.40
2022-12-31T20:13:49.041Z,24.25
2022-12-31T20:16:18.769Z,26.25
2022-12-31T20:18:47.518Z,32.38
2022-12-31T20:21:21.045Z,30.02
2022-12-31T20:23:50.110Z,25.10
2022-12-31T20:26:18.921Z,24.25
2022-12-31T20:28:48.395Z,26.38
2022-12-31T20:31:18.260Z,24.48
2022-12-31T20:33:46.186Z,27.17
2022-12-31T20:36:15.031Z,33.03
2022-12-31T20:38:42.605Z,25.15
2022-12-31T20:41:17.989Z,19.30
2022-12-31T20:43:46.081Z,15.98
2022-12-31T20:46:29.267Z,23.70
2022-12-31T20:48:59.431Z,19.35
2022-12-31T20:51:28.364Z,12.80
2022-12-31T20:54:04.772Z,18.02
2022-12-31T20:56:34.702Z,24.15
2022-12-31T20:59:03.079Z,18.70
2022-12-31T21:01:48.243Z,24.27
2022-12-31T21:04:18.476Z,21.00
2022-12-31T21:06:46.026Z,22.63
2022-12-31T21:09:14.019Z,29.85
2022-12-31T21:12:00.049Z,17.60
2022-12-31T21:14:27.384Z,24.48
2022-12-31T21:16:54.562Z,21.15
2022-12-31T21:19:21.710Z,21.52
2022-12-31T21:21:49.812Z,15.02
2022-12-31T21:24:23.307Z,15.45
2022-12-31T21:26:51.037Z,17.73
2022-12-31T21:29:18.188Z,17.20
2022-12-31T21:31:45.306Z,19.88
2022-12-31T21:34:12.589Z,14.95
2022-12-31T21:36:39.783Z,17.63
2022-12-31T21:39:06.996Z,21.17
2022-12-31T21:41:52.011Z,11.40
2022-12-31T21:44:21.092Z,19.00
2022-12-31T21:47:25.080Z,9.13
2022-12-31T21:49:39.775Z,15.35
2022-12-31T21:52:25.594Z,14.70
2022-12-31T21:55:16.338Z,13.98
2022-12-31T21:58:24.169Z,14.05
2022-12-31T22:00:55.118Z,15.68
2022-12-31T22:03:27.681Z,15.38
2022-12-31T22:06:16.219Z,17.00
2022-12-31T22:08:45.703Z,18.42
2022-12-31T22:11:14.174Z,15.73
2022-12-31T22:13:41.696Z,13.38
2022-12-31T22:16:13.165Z,21.42
2022-12-31T22:18:42.928Z,9.10
2022-12-31T22:21:19.199Z,12.27
2022-12-31T22:23:48.979Z,10.40
2022-12-31T22:26:18.439Z,14.48
2022-12-31T22:28:46.471Z,13.32
2022-12-31T22:31:19.507Z,17.15
2022-12-31T22:33:47.300Z,12.50
2022-12-31T22:36:17.802Z,13.20
2022-12-31T22:38:45.401Z,8.07
2022-12-31T22:41:15.512Z,9.77
2022-12-31T22:43:45.347Z,8.93
2022-12-31T22:46:18.455Z,7.75
2022-12-31T22:48:45.954Z,15.38
2022-12-31T22:51:15.022Z,9.73
2022-12-31T22:53:43.635Z,12.43
2022-12-31T22:56:19.337Z,11.10
2022-12-31T22:58:47.206Z,11.20
2022-12-31T23:01:20.491Z,8.93
2022-12-31T23:03:49.458Z,11.60
2022-12-31T23:06:17.656Z,8.40
2022-12-31T23:09:05.160Z,10.45
2022-12-31T23:11:33.920Z,9.88
2022-12-31T23:14:19.340Z,11.07
2022-12-31T23:17:29.486Z,8.65
2022-12-31T23:20:13.798Z,13.25
2022-12-31T23:22:59.839Z,31.42
2022-12-31T23:25:26.935Z,9.70
2022-12-31T23:27:54.235Z,9.30
2022-12-31T23:30:21.600Z,10.00
2022-12-31T23:32:48.883Z,9.05
2022-12-31T23:35:16.237Z,7.10
2022-12-31T23:37:43.439Z,6.57
2022-12-31T23:40:15.744Z,9.57
2022-12-31T23:42:46.135Z,7.80
2022-12-31T23:45:13.423Z,13.23
2022-12-31T23:47:40.747Z,4.20
2022-12-31T23:50:08.440Z,6.53
2022-12-31T23:52:35.595Z,8.43
2022-12-31T23:55:03.728Z,4.03
2022-12-31T23:57:30.962Z,8.23
2022-12-31T23:59:58.142Z,5.50
